Time;durP1;ratioP1;P1;durP2;ratioP2;P2;SDS_P1;SDS_P2;PMS_P1;PMS_P2;Temp;Humidity;BMP_temperature;BMP_pressure;BME280_temperature;BME280_humidity;BME280_pressure;Samples;Min_cycle;Max_cycle;Signal;HPM_P1;HPM_P2
2022/06/03 00:01:49;;;;;;;2.40;2.20;;;;;;;14.70;98.97;95791.25;5095306;28;20095;-60
2022/06/03 00:04:56;;;;;;;7.20;2.83;;;;;;;14.66;100.00;95789.94;5097964;28;20063;-60
2022/06/03 00:07:55;;;;;;;3.50;2.55;;;;;;;14.62;100.00;95793.91;5099520;28;20478;-60
2022/06/03 00:10:39;;;;;;;2.60;2.40;;;;;;;14.61;100.00;95792.25;5099386;27;20024;-60
2022/06/03 00:13:16;;;;;;;5.03;2.70;;;;;;;14.61;100.00;95789.59;5096126;28;20028;-60
2022/06/03 00:16:09;;;;;;;4.18;2.50;;;;;;;14.60;100.00;95786.09;5098712;28;20085;-60
2022/06/03 00:18:49;;;;;;;2.58;2.38;;;;;;;14.63;99.93;95789.41;5098272;28;20709;-60
2022/06/03 00:21:45;;;;;;;2.63;2.42;;;;;;;14.67;99.54;95788.09;5081832;28;20027;-60
2022/06/03 00:24:18;;;;;;;2.70;2.20;;;;;;;14.64;99.26;95785.78;5104368;28;20409;-60
2022/06/03 00:26:52;;;;;;;3.92;2.45;;;;;;;14.62;99.44;95793.91;5100490;28;20024;-60
2022/06/03 00:29:37;;;;;;;4.73;2.40;;;;;;;14.58;99.39;95785.44;5106681;28;20087;-60
2022/06/03 00:32:03;;;;;;;5.00;2.40;;;;;;;14.58;99.50;95781.97;5089358;28;20402;-59
2022/06/03 00:34:43;;;;;;;3.13;2.50;;;;;;;14.57;100.00;95786.44;5107013;28;20042;-60
2022/06/03 00:37:31;;;;;;;2.72;2.50;;;;;;;14.53;100.00;95795.72;5099758;28;20078;-60
2022/06/03 00:40:28;;;;;;;3.10;2.42;;;;;;;14.53;100.00;95801.03;5099799;28;20034;-59
2022/06/03 00:43:14;;;;;;;4.38;2.28;;;;;;;14.53;100.00;95806.31;5075780;28;20105;-60
2022/06/03 00:46:01;;;;;;;2.92;2.30;;;;;;;14.52;100.00;95809.97;5101008;28;20059;-59
2022/06/03 00:48:51;;;;;;;3.95;2.60;;;;;;;14.52;100.00;95809.97;5097047;28;20040;-59
2022/06/03 00:51:54;;;;;;;4.35;2.40;;;;;;;14.52;100.00;95804.66;5100513;28;20421;-60
2022/06/03 00:54:19;;;;;;;4.25;2.42;;;;;;;14.52;100.00;95804.66;5101243;28;20024;-59
2022/06/03 00:57:01;;;;;;;6.45;2.40;;;;;;;14.49;100.00;95809.44;5104297;28;20649;-59
2022/06/03 00:59:48;;;;;;;3.90;2.20;;;;;;;14.50;100.00;95797.84;5096617;28;20028;-59
2022/06/03 01:02:26;;;;;;;9.50;2.45;;;;;;;14.56;100.00;95789.25;5096306;27;20110;-59
2022/06/03 01:04:51;;;;;;;2.92;2.50;;;;;;;14.54;100.00;95792.06;5108211;27;20428;-59
2022/06/03 01:07:34;;;;;;;2.65;2.45;;;;;;;14.49;100.00;95793.56;5099400;27;20058;-60
2022/06/03 01:10:08;;;;;;;7.40;2.38;;;;;;;14.44;100.00;95786.94;5112344;27;20050;-60
2022/06/03 01:12:59;;;;;;;2.80;2.60;;;;;;;14.41;100.00;95786.41;5101096;27;20024;-60
2022/06/03 01:16:12;;;;;;;4.68;2.65;;;;;;;14.40;100.00;95780.31;5107987;27;20510;-60
2022/06/03 01:19:16;;;;;;;2.78;2.55;;;;;;;14.45;100.00;95777.16;5103730;27;20020;-59
2022/06/03 01:22:02;;;;;;;3.53;2.50;;;;;;;14.50;100.00;95764.25;5098702;27;20020;-60
2022/06/03 01:24:46;;;;;;;;;;;;;;;14.52;100.00;95756.13;5102818;27;20028;-60
2022/06/03 01:27:33;;;;;;;6.20;2.55;;;;;;;14.58;100.00;95763.41;5102348;27;20385;-60
2022/06/03 01:30:16;;;;;;;2.50;2.30;;;;;;;14.65;100.00;95750.34;5107525;27;20428;-59
2022/06/03 01:33:13;;;;;;;4.90;2.17;;;;;;;14.64;100.00;95757.47;5104406;27;20028;-60
2022/06/03 01:36:09;;;;;;;4.03;2.42;;;;;;;14.69;100.00;95756.97;5099506;27;20024;-59
2022/06/03 01:38:50;;;;;;;;;;;;;;;14.71;100.00;95745.25;5105782;27;20106;-59
2022/06/03 01:41:49;;;;;;;2.45;2.25;;;;;;;14.79;100.00;95739.13;5104660;28;19914;-58
2022/06/03 01:44:23;;;;;;;3.53;2.40;;;;;;;14.80;99.73;95731.97;5053717;28;20110;-60
2022/06/03 01:47:16;;;;;;;4.90;2.88;;;;;;;14.75;100.00;95729.84;5107218;27;20084;-59
2022/06/03 01:49:57;;;;;;;4.60;2.70;;;;;;;14.69;99.38;95715.41;5098359;28;20028;-59
2022/06/03 01:52:38;;;;;;;4.80;3.00;;;;;;;14.63;99.34;95710.78;5106715;27;20054;-59
2022/06/03 01:55:19;;;;;;;2.83;2.30;;;;;;;14.60;99.21;95701.34;5100469;27;20036;-59
2022/06/03 01:57:54;;;;;;;6.97;4.25;;;;;;;14.55;99.51;95697.53;5099529;27;20036;-60
2022/06/03 02:00:35;;;;;;;6.87;2.70;;;;;;;14.50;100.00;95708.63;5101148;27;20031;-59
2022/06/03 02:03:38;;;;;;;3.95;2.40;;;;;;;14.42;100.00;95706.81;5104877;27;20031;-60
2022/06/03 02:06:03;;;;;;;3.72;2.80;;;;;;;14.40;100.00;95705.31;5101913;28;20077;-59
2022/06/03 02:08:47;;;;;;;2.85;2.65;;;;;;;14.38;100.00;95713.44;5103689;27;20407;-59
2022/06/03 02:11:31;;;;;;;2.80;2.55;;;;;;;14.45;100.00;95706.47;5099177;28;20065;-60
2022/06/03 02:14:17;;;;;;;2.92;2.72;;;;;;;14.51;99.23;95699.69;5104113;27;20036;-59
2022/06/03 02:16:55;;;;;;;2.25;2.15;;;;;;;14.58;98.50;95703.31;5102499;27;20046;-59
2022/06/03 02:19:50;;;;;;;5.97;2.30;;;;;;;14.54;98.86;95706.47;5103526;27;20031;-59
2022/06/03 02:22:59;;;;;;;7.60;2.35;;;;;;;14.51;98.59;95705.00;5102448;27;20032;-60
2022/06/03 02:25:49;;;;;;;8.77;2.20;;;;;;;14.49;98.63;95700.84;5101512;27;20449;-60
2022/06/03 02:28:30;;;;;;;10.48;2.42;;;;;;;14.59;97.57;95709.47;5102228;27;20035;-59
2022/06/03 02:31:20;;;;;;;2.70;2.50;;;;;;;14.53;98.59;95708.31;5100399;27;20030;-60
2022/06/03 02:34:21;;;;;;;3.72;2.47;;;;;;;14.45;99.31;95709.13;5104206;27;20491;-59
2022/06/03 02:36:47;;;;;;;2.63;2.20;;;;;;;14.42;99.26;95727.16;5103139;27;20107;-59
2022/06/03 02:39:47;;;;;;;3.72;2.67;;;;;;;14.43;98.79;95742.91;5099833;27;20110;-60
2022/06/03 02:42:52;;;;;;;3.33;2.55;;;;;;;14.42;99.82;95761.59;5096912;27;20485;-60
2022/06/03 02:45:17;;;;;;;5.38;2.70;;;;;;;14.41;99.60;95744.03;5098600;27;20035;-59
2022/06/03 02:47:58;;;;;;;6.57;2.90;;;;;;;14.47;98.93;95748.69;5089287;27;20049;-60
2022/06/03 02:50:51;;;;;;;3.85;2.60;;;;;;;14.49;99.69;95757.31;5099268;28;20055;-60
2022/06/03 02:53:37;;;;;;;3.28;2.33;;;;;;;14.49;99.72;95759.13;5103790;27;20514;-60
2022/06/03 02:56:28;;;;;;;3.25;2.58;;;;;;;14.46;98.98;95757.63;5103039;27;20047;-59
2022/06/03 02:59:31;;;;;;;3.05;2.83;;;;;;;14.50;98.80;95753.66;5100517;27;20024;-60
2022/06/03 03:01:56;;;;;;;4.20;2.55;;;;;;;14.54;98.45;95749.69;5101131;27;20031;-60
2022/06/03 03:04:35;;;;;;;2.88;2.53;;;;;;;14.59;98.84;95760.63;5099216;27;20543;-59
2022/06/03 03:07:52;;;;;;;2.92;2.63;;;;;;;14.61;98.30;95755.97;5100042;27;20035;-60
2022/06/03 03:10:35;;;;;;;;;;;;;;;14.59;98.90;95767.75;5057851;27;20494;-60
2022/06/03 03:13:28;;;;;;;3.05;2.65;;;;;;;14.58;98.78;95756.31;5096713;27;19916;-60
2022/06/03 03:16:16;;;;;;;4.25;3.10;;;;;;;14.69;97.72;95756.97;5100938;27;20067;-60
2022/06/03 03:19:12;;;;;;;4.15;2.97;;;;;;;14.69;97.37;95751.66;5098631;27;20080;-59
2022/06/03 03:21:49;;;;;;;;;;;;;;;14.60;99.23;95748.22;5102343;27;20055;-60
2022/06/03 03:24:57;;;;;;;4.82;2.63;;;;;;;14.52;99.34;95740.25;5102930;27;20018;-60
2022/06/03 03:28:03;;;;;;;3.30;2.97;;;;;;;14.60;98.25;95738.41;5101225;27;20036;-59
2022/06/03 03:30:46;;;;;;;8.07;3.03;;;;;;;14.63;98.85;95737.28;5024628;28;20127;-59
2022/06/03 03:33:52;;;;;;;2.78;2.53;;;;;;;14.59;99.40;95730.66;5101401;27;20065;-60
2022/06/03 03:36:44;;;;;;;6.80;2.72;;;;;;;14.59;99.22;95725.34;5098749;28;20036;-60
2022/06/03 03:39:10;;;;;;;6.15;2.60;;;;;;;14.59;98.74;95730.66;5101558;27;20020;-59
2022/06/03 03:41:55;;;;;;;2.58;2.38;;;;;;;14.60;99.70;95729.66;5097935;27;20036;-60
2022/06/03 03:44:27;;;;;;;3.00;2.60;;;;;;;14.60;98.81;95727.81;5094837;27;20024;-60
2022/06/03 03:47:01;;;;;;;3.30;3.00;;;;;;;14.60;98.81;95734.97;5102363;28;20024;-60
2022/06/03 03:50:03;;;;;;;3.15;2.95;;;;;;;14.57;99.57;95737.91;5095237;27;20020;-60
2022/06/03 03:53:06;;;;;;;6.07;2.78;;;;;;;14.57;99.52;95733.47;5097657;27;20034;-60
2022/06/03 03:55:44;;;;;;;3.65;2.65;;;;;;;14.55;99.12;95737.25;5097873;27;20028;-60
2022/06/03 03:58:21;;;;;;;4.72;2.67;;;;;;;14.55;98.97;95743.41;5099474;27;20058;-60
2022/06/03 04:01:21;;;;;;;3.13;2.83;;;;;;;14.52;99.26;95743.72;5100573;28;20032;-59
2022/06/03 04:03:53;;;;;;;2.65;2.45;;;;;;;14.52;99.05;95745.53;5096800;27;20019;-59
2022/06/03 04:06:44;;;;;;;3.00;2.70;;;;;;;14.52;98.70;95729.66;5097098;28;20106;-59
2022/06/03 04:09:35;;;;;;;4.22;2.75;;;;;;;14.55;98.62;95730.16;5093950;28;20389;-59
2022/06/03 04:12:21;;;;;;;3.67;2.85;;;;;;;14.53;98.12;95721.53;5078081;28;20044;-59
2022/06/03 04:15:29;;;;;;;4.82;2.58;;;;;;;14.52;98.31;95725.19;5096684;28;20058;-59
2022/06/03 04:18:20;;;;;;;4.95;2.83;;;;;;;14.52;97.75;95713.75;5079420;28;20043;-59
2022/06/03 04:21:14;;;;;;;4.85;2.92;;;;;;;14.50;97.93;95703.34;5095486;28;20028;-59
2022/06/03 04:24:00;;;;;;;5.53;3.00;;;;;;;14.53;98.06;95695.06;5096023;28;20526;-59
2022/06/03 04:26:49;;;;;;;5.13;2.90;;;;;;;14.55;97.87;95695.72;5104214;28;20046;-59
2022/06/03 04:29:52;;;;;;;5.93;2.70;;;;;;;14.60;97.25;95671.38;5077205;28;20070;-59
2022/06/03 04:32:50;;;;;;;3.97;2.83;;;;;;;14.69;96.76;95656.28;5092866;28;20094;-59
2022/06/03 04:35:58;;;;;;;4.13;2.72;;;;;;;14.69;96.12;95640.38;5096673;28;20024;-60
2022/06/03 04:39:11;;;;;;;6.88;2.45;;;;;;;14.70;95.36;95642.03;5096620;28;20114;-60
2022/06/03 04:42:14;;;;;;;6.53;2.63;;;;;;;14.86;94.72;95627.97;5031530;28;20148;-59
2022/06/03 04:45:07;;;;;;;3.88;2.53;;;;;;;14.84;95.14;95620.16;5097912;27;20410;-60
2022/06/03 04:48:10;;;;;;;4.55;3.45;;;;;;;14.82;96.33;95638.06;5102475;27;20486;-60
2022/06/03 04:50:53;;;;;;;4.40;3.33;;;;;;;14.81;96.41;95648.81;5101344;27;20486;-60
2022/06/03 04:53:49;;;;;;;4.20;2.40;;;;;;;14.83;96.46;95658.28;5104966;27;20032;-60
2022/06/03 04:56:30;;;;;;;9.02;3.10;;;;;;;14.89;95.91;95659.41;5104337;27;20958;-59
2022/06/03 04:59:46;;;;;;;3.58;2.85;;;;;;;14.97;95.46;95670.00;5103275;27;20126;-60
2022/06/03 05:02:36;;;;;;;4.03;2.73;;;;;;;15.07;95.25;95675.09;5053195;27;20039;-60
2022/06/03 05:05:27;;;;;;;6.38;2.75;;;;;;;15.11;94.30;95667.63;5099687;27;20332;-59
2022/06/03 05:08:17;;;;;;;3.25;2.90;;;;;;;15.30;93.15;95653.97;5071009;27;20089;-60
2022/06/03 05:11:13;;;;;;;3.00;2.70;;;;;;;15.43;91.83;95644.63;5108315;27;20027;-59
2022/06/03 05:14:20;;;;;;;4.00;3.00;;;;;;;15.43;91.82;95641.97;5098576;27;20031;-60
2022/06/03 05:17:03;;;;;;;4.32;2.65;;;;;;;15.39;92.25;95641.50;5071709;27;20035;-59
2022/06/03 05:19:31;;;;;;;2.92;2.72;;;;;;;15.34;93.00;95638.53;5097927;27;20036;-60
2022/06/03 05:22:15;;;;;;;5.93;2.55;;;;;;;15.37;92.56;95632.91;5103301;27;20032;-60
2022/06/03 05:25:18;;;;;;;5.18;2.95;;;;;;;15.45;92.13;95627.53;5102233;27;20494;-60
2022/06/03 05:28:12;;;;;;;3.33;2.80;;;;;;;15.53;93.13;95631.16;5107969;27;20079;-60
2022/06/03 05:30:59;;;;;;;6.40;2.90;;;;;;;15.57;92.91;95627.97;5103046;27;20490;-60
2022/06/03 05:34:01;;;;;;;3.15;2.75;;;;;;;15.65;93.31;95619.16;5102800;27;20442;-60
2022/06/03 05:36:48;;;;;;;7.00;2.42;;;;;;;15.71;92.68;95633.53;5102137;27;20026;-59
2022/06/03 05:39:31;;;;;;;4.32;3.35;;;;;;;15.82;92.80;95634.97;5107508;27;20076;-60
2022/06/03 05:42:24;;;;;;;2.83;2.63;;;;;;;15.90;91.65;95632.28;5108843;27;20038;-60
2022/06/03 05:45:11;;;;;;;3.03;2.40;;;;;;;15.97;91.87;95637.72;5102319;27;20152;-59
2022/06/03 05:47:44;;;;;;;4.35;3.95;;;;;;;16.02;91.57;95636.16;5101874;27;20035;-60
2022/06/03 05:50:23;;;;;;;7.15;3.17;;;;;;;16.11;91.27;95641.44;5097038;27;20521;-59
2022/06/03 05:52:54;;;;;;;2.78;2.58;;;;;;;16.17;91.77;95644.19;5113819;27;20028;-60
2022/06/03 05:55:43;;;;;;;4.65;2.78;;;;;;;16.21;90.08;95642.00;5103465;27;20518;-60
2022/06/03 05:58:27;;;;;;;3.20;2.90;;;;;;;16.32;89.67;95628.31;5100625;27;20020;-60
2022/06/03 06:01:30;;;;;;;3.38;2.95;;;;;;;16.49;88.83;95624.66;5102079;27;20451;-60
2022/06/03 06:04:44;;;;;;;4.00;2.92;;;;;;;16.56;87.80;95618.44;5101239;27;20402;-60
2022/06/03 06:07:31;;;;;;;4.72;2.50;;;;;;;16.70;88.30;95611.50;5028327;28;20038;-62
2022/06/03 06:10:13;;;;;;;4.32;2.72;;;;;;;16.80;88.09;95599.75;5099815;27;20040;-61
2022/06/03 06:12:58;;;;;;;3.17;2.60;;;;;;;17.03;88.13;95607.69;5103444;27;20035;-60
2022/06/03 06:15:51;;;;;;;4.00;2.80;;;;;;;17.27;85.47;95606.56;5102391;27;20027;-60
2022/06/03 06:18:33;;;;;;;4.55;4.15;;;;;;;17.49;83.02;95613.75;5100550;27;20518;-60
2022/06/03 06:21:31;;;;;;;6.45;5.85;;;;;;;17.46;83.64;95618.44;5096073;27;20027;-60
2022/06/03 06:24:18;;;;;;;12.40;6.53;;;;;;;17.61;82.85;95609.59;5102461;27;20114;-60
2022/06/03 06:27:05;;;;;;;11.27;5.63;;;;;;;17.74;83.62;95599.06;5105996;27;20027;-60
2022/06/03 06:29:36;;;;;;;6.13;3.30;;;;;;;17.82;83.73;95605.31;5103768;27;20078;-61
2022/06/03 06:32:19;;;;;;;5.97;3.20;;;;;;;18.00;82.72;95608.34;5103567;27;20172;-62
2022/06/03 06:34:57;;;;;;;8.13;2.65;;;;;;;18.20;82.12;95618.38;5109176;27;20047;-62
2022/06/03 06:37:50;;;;;;;2.83;2.63;;;;;;;18.21;80.43;95622.69;5101001;27;20032;-61
2022/06/03 06:40:38;;;;;;;3.83;2.92;;;;;;;18.20;80.06;95615.72;5081120;28;20432;-61
2022/06/03 06:43:34;;;;;;;4.45;2.60;;;;;;;18.17;79.72;95632.94;5087337;28;20047;-60
2022/06/03 06:46:46;;;;;;;3.25;2.92;;;;;;;18.29;80.12;95635.91;5102461;27;20034;-60
2022/06/03 06:49:32;;;;;;;5.05;2.95;;;;;;;18.46;82.64;95630.31;5100682;27;20028;-61
2022/06/03 06:52:15;;;;;;;3.90;2.85;;;;;;;18.66;81.70;95635.78;5099324;28;20102;-60
2022/06/03 06:54:50;;;;;;;4.25;2.50;;;;;;;18.90;79.62;95634.50;5103198;27;20035;-59
2022/06/03 06:57:28;;;;;;;4.22;2.70;;;;;;;19.09;78.24;95618.00;5100819;27;20035;-60
2022/06/03 07:00:00;;;;;;;3.75;2.35;;;;;;;19.31;76.28;95622.22;5099139;27;20054;-60
2022/06/03 07:02:54;;;;;;;4.78;2.38;;;;;;;19.52;74.38;95627.63;5099316;27;20016;-60
2022/06/03 07:05:37;;;;;;;2.65;2.40;;;;;;;19.78;73.32;95632.22;5058874;28;20119;-59
2022/06/03 07:08:18;;;;;;;2.78;2.15;;;;;;;20.19;71.52;95638.50;5103813;27;20071;-60
2022/06/03 07:10:49;;;;;;;3.40;2.30;;;;;;;20.14;69.47;95640.97;5103944;27;20468;-59
2022/06/03 07:13:27;;;;;;;2.97;2.42;;;;;;;20.32;69.69;95638.53;5102097;27;20067;-60
2022/06/03 07:16:07;;;;;;;4.20;2.47;;;;;;;20.33;69.01;95640.16;5102571;27;20028;-60
2022/06/03 07:22:01;;;;;;;3.00;2.38;;;;;;;19.94;69.49;95633.72;5101190;27;20035;-59
2022/06/03 07:24:49;;;;;;;2.22;2.13;;;;;;;20.12;68.16;95629.66;5099889;27;20513;-61
2022/06/03 07:27:44;;;;;;;5.55;2.40;;;;;;;20.07;69.21;95646.28;5091138;27;20071;-59
2022/06/03 07:30:26;;;;;;;3.70;2.50;;;;;;;19.81;70.21;95655.06;5103876;27;20509;-60
2022/06/03 07:33:10;;;;;;;3.30;2.75;;;;;;;19.97;70.17;95670.72;5097952;28;20027;-61
2022/06/03 07:35:58;;;;;;;3.15;2.85;;;;;;;19.40;74.36;95670.09;5100410;27;20613;-60
2022/06/03 07:38:46;;;;;;;3.50;2.55;;;;;;;19.35;74.50;95670.69;5103064;27;20617;-60
2022/06/03 07:41:16;;;;;;;4.35;2.85;;;;;;;19.40;73.89;95676.25;5098736;27;20043;-60
2022/06/03 07:43:52;;;;;;;4.75;2.80;;;;;;;19.42;73.42;95673.38;5097866;28;20071;-60
2022/06/03 07:46:25;;;;;;;3.13;2.75;;;;;;;19.61;73.33;95696.69;5099158;27;20505;-60
2022/06/03 07:48:51;;;;;;;3.42;3.03;;;;;;;19.61;72.37;95695.88;5100670;27;20031;-60
2022/06/03 07:51:20;;;;;;;3.40;3.10;;;;;;;19.70;73.39;95699.19;5099795;28;20024;-60
2022/06/03 07:53:51;;;;;;;3.90;3.13;;;;;;;19.73;72.10;95701.47;5098081;27;20020;-60
2022/06/03 07:56:22;;;;;;;4.10;2.53;;;;;;;19.57;74.21;95703.44;5097750;28;20043;-60
2022/06/03 07:58:51;;;;;;;7.53;3.05;;;;;;;19.32;74.50;95698.59;5104737;27;20035;-59
2022/06/03 08:01:29;;;;;;;5.32;4.00;;;;;;;19.30;76.71;95699.81;5104122;27;20016;-60
2022/06/03 08:03:55;;;;;;;4.53;3.08;;;;;;;19.49;75.51;95705.44;5098245;28;20031;-60
2022/06/03 08:12:11;;;;;;;3.30;3.00;;;;;;;19.78;73.20;95706.19;5086055;28;20119;-61
2022/06/03 08:14:37;;;;;;;6.05;2.75;;;;;;;19.99;72.62;95708.75;5099943;27;20435;-60
2022/06/03 08:17:06;;;;;;;3.92;2.65;;;;;;;20.50;69.27;95698.59;5098905;28;20024;-60
2022/06/03 08:19:34;;;;;;;3.97;2.65;;;;;;;20.06;70.30;95700.75;5097486;28;20098;-60
2022/06/03 08:22:03;;;;;;;4.95;2.63;;;;;;;19.92;71.52;95693.75;5097601;28;20023;-60
2022/06/03 08:24:38;;;;;;;4.18;2.50;;;;;;;19.79;71.22;95695.31;5099536;28;20538;-60
2022/06/03 08:27:10;;;;;;;3.38;2.70;;;;;;;19.81;69.07;95703.13;5100979;28;20034;-60
2022/06/03 08:29:43;;;;;;;3.35;2.72;;;;;;;19.81;69.92;95700.47;5100593;28;20414;-61
2022/06/03 08:32:15;;;;;;;4.40;3.10;;;;;;;19.56;71.00;95719.66;5097965;28;20130;-60
2022/06/03 08:34:47;;;;;;;5.70;2.92;;;;;;;19.25;74.13;95735.09;5099163;28;20027;-60
2022/06/03 08:37:18;;;;;;;2.95;2.75;;;;;;;18.85;75.98;95751.59;5098092;28;20024;-60
2022/06/03 08:39:45;;;;;;;7.32;3.28;;;;;;;18.63;78.18;95781.97;5098166;28;20414;-60
2022/06/03 08:42:11;;;;;;;5.75;2.90;;;;;;;18.36;80.60;95795.84;5102839;28;20039;-59
2022/06/03 08:44:58;;;;;;;8.02;3.70;;;;;;;18.21;82.45;95814.53;5098409;28;20462;-59
2022/06/03 08:47:45;;;;;;;6.50;3.72;;;;;;;18.05;86.19;95842.22;5104227;28;20509;-59
2022/06/03 08:50:21;;;;;;;4.63;4.18;;;;;;;17.78;89.03;95854.28;5095499;28;20024;-60
2022/06/03 08:53:04;;;;;;;4.43;3.90;;;;;;;17.67;91.39;95863.56;5098479;28;20508;-59
2022/06/03 08:55:50;;;;;;;9.20;4.35;;;;;;;17.74;91.05;95881.28;5101807;28;20032;-60
2022/06/03 08:58:35;;;;;;;4.00;3.70;;;;;;;17.43;94.46;95892.91;5096546;28;20027;-60
2022/06/03 09:01:27;;;;;;;7.57;4.47;;;;;;;17.36;95.87;95905.28;5095577;28;20020;-60
2022/06/03 09:04:19;;;;;;;10.10;4.40;;;;;;;17.41;96.34;95905.56;5095363;28;20290;-59
2022/06/03 09:06:57;;;;;;;5.57;4.28;;;;;;;17.27;98.14;95901.03;5102537;28;20028;-59
2022/06/03 09:09:50;;;;;;;4.25;3.95;;;;;;;17.17;98.97;95904.78;5102300;28;20020;-59
2022/06/03 09:12:27;;;;;;;7.68;4.70;;;;;;;17.17;99.27;95899.44;5098903;28;20493;-60
2022/06/03 09:14:56;;;;;;;4.55;4.10;;;;;;;17.24;98.51;95904.06;5100978;28;20031;-59
2022/06/03 09:17:42;;;;;;;8.57;7.78;;;;;;;17.27;100.00;95907.19;5104206;28;20031;-60
2022/06/03 09:20:10;;;;;;;7.53;5.60;;;;;;;17.46;99.45;95908.53;5097148;28;20021;-60
2022/06/03 09:22:36;;;;;;;7.22;5.18;;;;;;;17.48;100.00;95908.34;5099145;27;20411;-59
2022/06/03 09:25:06;;;;;;;5.88;4.55;;;;;;;17.55;100.00;95903.09;5103183;27;20027;-59
2022/06/03 09:27:33;;;;;;;6.03;5.03;;;;;;;17.60;100.00;95906.09;5100632;27;20028;-60
2022/06/03 09:30:02;;;;;;;5.60;5.13;;;;;;;17.55;100.00;95901.28;5103035;27;20024;-60
2022/06/03 09:32:31;;;;;;;6.45;5.05;;;;;;;17.57;100.00;95899.28;5102772;27;20035;-60
2022/06/03 09:35:01;;;;;;;15.13;13.82;;;;;;;17.52;100.00;95899.00;5100953;27;20028;-59
2022/06/03 09:37:36;;;;;;;26.58;24.15;;;;;;;17.57;100.00;95901.09;5104430;28;20110;-60
2022/06/03 09:40:06;;;;;;;18.60;17.00;;;;;;;17.58;100.00;95900.13;5083701;28;20059;-60
2022/06/03 09:42:33;;;;;;;11.43;10.52;;;;;;;17.62;100.00;95893.41;5101070;27;20075;-59
2022/06/03 09:45:02;;;;;;;21.65;19.60;;;;;;;17.79;100.00;95904.72;5100018;27;20028;-60
2022/06/03 09:47:29;;;;;;;20.45;18.60;;;;;;;17.89;100.00;95907.13;5105825;27;20027;-59
2022/06/03 09:49:54;;;;;;;19.65;17.67;;;;;;;17.96;100.00;95912.53;5104193;27;20095;-59
2022/06/03 09:52:23;;;;;;;15.55;13.95;;;;;;;18.01;98.66;95905.66;5103921;27;20538;-60
2022/06/03 09:54:49;;;;;;;16.15;13.07;;;;;;;17.89;100.00;95909.78;5100674;27;20039;-59
2022/06/03 09:57:36;;;;;;;13.52;10.35;;;;;;;17.91;100.00;95907.75;5100922;27;20051;-59
2022/06/03 10:00:15;;;;;;;9.68;8.68;;;;;;;17.84;100.00;95909.50;5099404;27;20123;-59
2022/06/03 10:02:42;;;;;;;8.63;7.43;;;;;;;17.74;100.00;95905.25;5098584;27;20107;-60
2022/06/03 10:05:09;;;;;;;9.90;9.10;;;;;;;17.81;100.00;95915.19;5100415;27;20039;-60
2022/06/03 10:07:35;;;;;;;10.13;9.07;;;;;;;17.84;100.00;95917.50;5102768;27;20130;-60
2022/06/03 10:12:52;;;;;;;11.90;10.80;;;;;;;17.87;100.00;95914.47;5098850;27;20133;-61
2022/06/03 10:15:37;;;;;;;11.20;9.38;;;;;;;18.04;100.00;95910.66;5099968;27;20024;-60
2022/06/03 10:18:05;;;;;;;10.68;7.72;;;;;;;18.27;100.00;95914.22;5104042;27;20156;-60
2022/06/03 10:20:32;;;;;;;7.60;6.25;;;;;;;18.44;100.00;95926.34;5101206;27;20754;-60
2022/06/03 10:22:58;;;;;;;8.43;4.93;;;;;;;18.57;98.63;95925.66;5100553;27;20109;-60
2022/06/03 10:25:27;;;;;;;6.80;5.78;;;;;;;18.63;97.39;95926.78;5101512;27;20497;-60
2022/06/03 10:27:52;;;;;;;6.05;5.35;;;;;;;18.59;94.79;95920.97;5101546;28;20027;-60
2022/06/03 10:30:28;;;;;;;9.23;4.47;;;;;;;18.53;92.92;95916.41;5104447;27;20028;-60
2022/06/03 10:32:54;;;;;;;8.05;5.57;;;;;;;18.51;95.23;95921.09;5111631;27;20035;-60
2022/06/03 10:35:26;;;;;;;10.00;4.93;;;;;;;18.50;97.14;95923.94;5100595;27;20024;-60
2022/06/03 10:37:59;;;;;;;5.13;4.22;;;;;;;18.53;98.04;95923.56;5101666;27;20103;-60
2022/06/03 10:40:26;;;;;;;4.82;3.70;;;;;;;18.53;96.24;95916.41;5104477;28;20016;-60
2022/06/03 10:42:57;;;;;;;5.70;3.63;;;;;;;18.58;96.70;95911.31;5099754;27;20024;-60
2022/06/03 10:45:41;;;;;;;5.05;4.55;;;;;;;18.58;99.33;95916.66;5106333;27;20028;-60
2022/06/03 10:48:19;;;;;;;6.32;4.78;;;;;;;18.72;99.75;95924.81;5101978;27;20023;-60
2022/06/03 10:50:44;;;;;;;7.55;4.25;;;;;;;18.94;97.94;95917.66;5105231;27;20039;-60
2022/06/03 11:01:47;;;;;;;6.40;4.30;;;;;;;19.29;94.01;95933.03;5099125;27;20051;-60
2022/06/03 11:04:29;;;;;;;5.25;4.30;;;;;;;19.55;92.90;95928.94;5096566;27;20058;-60
2022/06/03 11:06:59;;;;;;;7.75;3.83;;;;;;;19.72;91.69;95927.63;5104179;27;20080;-60
2022/06/03 11:09:25;;;;;;;4.20;3.80;;;;;;;19.84;90.99;95925.25;5097030;27;20110;-60
2022/06/03 11:11:57;;;;;;;8.35;3.42;;;;;;;20.16;89.32;95931.06;5106766;27;20023;-60
2022/06/03 11:14:22;;;;;;;4.50;3.38;;;;;;;20.40;88.03;95923.56;5099307;27;20047;-60
2022/06/03 11:17:16;;;;;;;4.03;3.38;;;;;;;20.67;83.68;95914.81;5104498;27;20026;-61
2022/06/03 11:19:45;;;;;;;6.97;3.38;;;;;;;21.25;83.85;95913.56;5099307;28;20035;-61
2022/06/03 11:22:19;;;;;;;7.15;3.60;;;;;;;21.72;81.02;95919.78;5096463;27;20073;-60
2022/06/03 11:25:13;;;;;;;3.10;2.83;;;;;;;21.87;75.95;95913.41;5101186;27;20020;-60
2022/06/03 11:27:41;;;;;;;6.20;3.10;;;;;;;21.94;79.05;95914.19;5100053;28;20266;-60
2022/06/03 11:30:14;;;;;;;8.15;3.28;;;;;;;22.06;77.82;95905.53;5096390;27;20027;-60
2022/06/03 11:32:44;;;;;;;3.63;3.33;;;;;;;22.18;78.53;95902.00;5099776;27;20027;-60
2022/06/03 11:35:18;;;;;;;7.43;3.10;;;;;;;22.32;76.62;95894.72;5093743;27;20035;-60
2022/06/03 11:37:52;;;;;;;4.07;3.10;;;;;;;22.15;73.45;95888.19;5096883;27;20027;-60
2022/06/03 11:40:29;;;;;;;4.00;2.50;;;;;;;22.21;73.94;95890.00;5096068;27;20130;-59
2022/06/03 11:43:02;;;;;;;3.42;3.13;;;;;;;22.22;72.67;95890.84;5097215;27;20131;-60
2022/06/03 11:46:00;;;;;;;6.30;3.00;;;;;;;22.65;73.84;95884.09;5093497;27;20028;-59
2022/06/03 11:48:41;;;;;;;6.05;3.20;;;;;;;23.00;73.48;95879.19;5099204;28;20019;-60
2022/06/03 11:51:09;;;;;;;3.88;3.28;;;;;;;23.35;72.56;95869.88;5110922;27;20052;-60
2022/06/03 11:53:40;;;;;;;4.43;2.90;;;;;;;23.51;70.32;95871.19;5082915;27;20407;-60
2022/06/03 11:56:09;;;;;;;6.35;3.03;;;;;;;23.67;69.37;95863.63;5099731;27;20039;-61
2022/06/03 11:58:55;;;;;;;3.55;3.22;;;;;;;23.84;69.68;95853.13;5099635;27;20474;-61
2022/06/03 12:01:50;;;;;;;3.25;2.92;;;;;;;23.80;69.94;95849.25;5100170;28;20012;-61
2022/06/03 12:04:19;;;;;;;3.70;3.30;;;;;;;23.77;70.35;95844.31;5096114;27;20038;-61
2022/06/03 12:07:06;;;;;;;3.42;2.92;;;;;;;23.68;67.29;95823.09;5097744;28;20031;-61
2022/06/03 12:09:50;;;;;;;3.75;3.15;;;;;;;23.95;66.35;95817.41;5096465;28;20042;-62
2022/06/03 12:15:28;;;;;;;3.80;2.58;;;;;;;24.20;64.55;95791.53;5099543;27;20023;-62
2022/06/03 12:17:54;;;;;;;4.28;2.90;;;;;;;23.78;68.34;95787.63;5106104;28;20059;-60
2022/06/03 12:20:31;;;;;;;6.22;3.40;;;;;;;23.57;67.50;95786.22;5094949;28;20073;-61
2022/06/03 12:23:12;;;;;;;7.00;3.20;;;;;;;23.14;66.84;95774.38;5099535;28;20027;-61
2022/06/03 12:25:40;;;;;;;4.80;2.90;;;;;;;22.79;68.93;95777.53;5102738;28;20502;-61
2022/06/03 12:28:15;;;;;;;6.03;3.00;;;;;;;22.63;70.36;95776.19;5101543;28;20091;-61
2022/06/03 12:30:50;;;;;;;2.78;2.58;;;;;;;22.68;70.45;95768.31;5096291;28;20024;-61
2022/06/03 12:33:44;;;;;;;2.95;2.65;;;;;;;22.96;70.62;95772.47;5097441;28;20019;-61
2022/06/03 12:36:25;;;;;;;5.70;3.00;;;;;;;23.24;67.81;95763.13;5100575;28;20032;-61
2022/06/03 12:39:05;;;;;;;4.78;3.05;;;;;;;24.20;66.52;95768.13;5099810;28;20024;-61
2022/06/03 12:41:45;;;;;;;11.27;3.20;;;;;;;25.29;63.38;95758.28;5087663;28;20390;-61
2022/06/03 12:44:23;;;;;;;4.88;3.15;;;;;;;25.70;61.36;95762.97;5096854;28;20375;-61
2022/06/03 12:46:48;;;;;;;6.40;2.65;;;;;;;26.42;60.11;95760.94;5097697;28;20043;-61
2022/06/03 12:49:32;;;;;;;3.92;2.33;;;;;;;26.43;61.14;95765.28;5100128;28;20031;-61
2022/06/03 12:52:01;;;;;;;6.28;3.10;;;;;;;26.61;60.44;95766.94;5104064;28;20043;-61
2022/06/03 12:54:28;;;;;;;8.45;3.33;;;;;;;26.59;58.13;95759.09;5094969;28;20054;-62
2022/06/03 12:57:19;;;;;;;9.20;2.85;;;;;;;26.78;57.54;95758.06;5099403;28;20058;-61
2022/06/03 12:59:52;;;;;;;5.95;3.08;;;;;;;26.74;58.02;95763.94;5101761;27;20043;-62
2022/06/03 13:02:27;;;;;;;3.97;2.75;;;;;;;26.59;58.14;95764.47;5104400;28;20019;-62
2022/06/03 13:04:55;;;;;;;4.28;3.00;;;;;;;26.77;56.94;95761.84;5104787;28;20020;-61